Terminal Aerodrome Forecast
Issued by NWS

Home | Current Version | Previous Version | Text Only | Print | Product List | Glossary On
Versions: 1 2 3 4 5 6 7 8 9 10 11 12 13 14 15 16 17 18 19 20 21 22 23 24
000
FTUS42 KJAX 310520
TAFCRG
TAF
KCRG 310520Z 3106/0106 VRB03KT P6SM FEW150 FEW250
     FM310900 24005KT 5SM BR SCT004
      TEMPO 3111/3113 1SM BR BKN002
     FM311300 24008KT P6SM SCT030
     FM311800 12008KT P6SM VCTS SCT020 SCT040CB BKN080
     FM312000 15008KT P6SM VCTS SCT020 BKN040CB
     FM010200 VRB04KT P6SM SKC=

USA.gov is the U.S. government's official web portal to all federal, state and local government web resources and services.